Time;durP1;ratioP1;P1;durP2;ratioP2;P2;SDS_P1;SDS_P2;PMS_P1;PMS_P2;Temp;Humidity;BMP_temperature;BMP_pressure;BME280_temperature;BME280_humidity;BME280_pressure;Samples;Min_cycle;Max_cycle;Signal;HPM_P1;HPM_P2
2024/03/25 00:01:07;;;;;;;;;;;;;;;10.36;100.00;98936.88;5013126;28;20036;-73
2024/03/25 00:03:32;;;;;;;;;;;;;;;10.30;100.00;98936.75;5014191;28;20379;-73
2024/03/25 00:05:57;;;;;;;;;;;;;;;10.12;100.00;98939.97;5013729;28;20367;-73
2024/03/25 00:08:23;;;;;;;;;;;;;;;10.08;100.00;98940.78;5013364;28;20315;-73
2024/03/25 00:10:48;;;;;;;;;;;;;;;10.08;100.00;98921.84;5013506;28;19925;-73
2024/03/25 00:13:14;;;;;;;;;;;;;;;10.16;100.00;98915.94;5014518;28;19925;-73
2024/03/25 00:15:39;;;;;;;;;;;;;;;10.24;100.00;98900.56;5013225;28;20350;-73
2024/03/25 00:18:05;;;;;;;;;;;;;;;10.24;100.00;98889.41;5013406;28;19917;-73
2024/03/25 00:20:30;;;;;;;;;;;;;;;9.85;100.00;98884.59;5013700;28;19924;-73
2024/03/25 00:22:56;;;;;;;;;;;;;;;9.42;100.00;98880.50;4994494;28;19953;-73
2024/03/25 00:25:21;;;;;;;;;;;;;;;9.18;100.00;98863.81;5013294;28;19925;-73
2024/03/25 00:27:47;;;;;;;;;;;;;;;9.08;100.00;98867.94;5014104;28;19973;-72
2024/03/25 00:30:13;;;;;;;;;;;;;;;9.05;100.00;98867.91;5013013;28;19924;-73
2024/03/25 00:32:38;;;;;;;;;;;;;;;9.06;100.00;98877.34;5012615;28;19922;-72
2024/03/25 00:35:04;;;;;;;;;;;;;;;9.09;100.00;98873.97;5014136;28;19922;-72
2024/03/25 00:37:29;;;;;;;;;;;;;;;9.21;100.00;98879.31;5022121;28;19948;-73
2024/03/25 00:39:55;;;;;;;;;;;;;;;9.43;100.00;98887.38;5023065;28;19925;-72
2024/03/25 00:42:20;;;;;;;;;;;;;;;9.48;100.00;98894.38;5022548;28;20027;-73
2024/03/25 00:44:45;;;;;;;;;;;;;;;9.49;100.00;98901.22;5020586;28;19925;-72
2024/03/25 00:47:11;;;;;;;;;;;;;;;9.28;100.00;98900.88;5024527;28;19917;-72
2024/03/25 00:49:36;;;;;;;;;;;;;;;9.24;100.00;98899.97;5020778;28;19928;-72
2024/03/25 00:52:02;;;;;;;;;;;;;;;9.34;100.00;98893.25;5021699;28;20379;-72
2024/03/25 00:54:27;;;;;;;;;;;;;;;9.35;100.00;98885.56;5022434;28;20458;-73
2024/03/25 00:56:53;;;;;;;;;;;;;;;9.31;100.00;98873.47;5025315;28;19921;-73
2024/03/25 00:59:18;;;;;;;;;;;;;;;9.26;100.00;98867.38;5021915;28;19928;-73
2024/03/25 01:01:44;;;;;;;;;;;;;;;9.26;100.00;98862.25;5020542;28;20571;-73
2024/03/25 01:04:09;;;;;;;;;;;;;;;9.28;100.00;98851.94;5021367;28;19921;-73
2024/03/25 01:06:34;;;;;;;;;;;;;;;9.33;100.00;98853.78;5023698;28;20339;-73
2024/03/25 01:09:00;;;;;;;;;;;;;;;9.37;100.00;98844.34;5020689;28;20402;-73
2024/03/25 01:11:25;;;;;;;;;;;;;;;9.38;100.00;98836.69;5021576;28;19921;-73
2024/03/25 01:13:51;;;;;;;;;;;;;;;9.46;100.00;98829.06;5003585;28;19983;-73
2024/03/25 01:16:16;;;;;;;;;;;;;;;9.41;100.00;98827.25;5025969;28;19932;-73
2024/03/25 01:18:41;;;;;;;;;;;;;;;9.33;100.00;98830.59;5020523;28;20387;-73
2024/03/25 01:21:07;;;;;;;;;;;;;;;9.26;100.00;98833.91;5025951;28;19932;-72
2024/03/25 01:23:32;;;;;;;;;;;;;;;9.26;100.00;98825.31;5015312;28;19926;-73
2024/03/25 01:25:57;;;;;;;;;;;;;;;9.23;100.00;98818.41;5024261;28;19917;-72
2024/03/25 01:28:23;;;;;;;;;;;;;;;9.28;100.00;98816.75;5021508;28;19925;-72
2024/03/25 01:30:48;;;;;;;;;;;;;;;9.26;100.00;98809.84;5022158;28;19921;-73
2024/03/25 01:33:14;;;;;;;;;;;;;;;9.27;100.00;98798.72;5023344;28;19922;-73
2024/03/25 01:35:40;;;;;;;;;;;;;;;9.20;100.00;98813.22;5020506;28;19928;-72
2024/03/25 01:38:05;;;;;;;;;;;;;;;9.14;100.00;98816.53;5010761;28;20387;-73
2024/03/25 01:40:31;;;;;;;;;;;;;;;9.12;100.00;98815.69;5012529;28;19917;-72
2024/03/25 01:42:56;;;;;;;;;;;;;;;9.09;100.00;98818.19;5012056;28;19928;-72
2024/03/25 01:45:22;;;;;;;;;;;;;;;8.99;100.00;98812.00;5011345;28;19921;-74
2024/03/25 01:47:47;;;;;;;;;;;;;;;8.97;100.00;98806.00;5011689;28;19921;-74
2024/03/25 01:50:13;;;;;;;;;;;;;;;8.92;100.00;98802.44;5011936;28;20380;-74
2024/03/25 01:52:39;;;;;;;;;;;;;;;8.94;100.00;98805.06;5011757;28;19917;-74
2024/03/25 01:55:07;;;;;;;;;;;;;;;8.93;100.00;98811.91;4993219;28;19984;-74
2024/03/25 01:57:32;;;;;;;;;;;;;;;8.96;100.00;98811.09;5011579;28;19924;-74
2024/03/25 01:59:57;;;;;;;;;;;;;;;8.93;100.00;98811.06;5011599;28;19921;-74
2024/03/25 02:02:23;;;;;;;;;;;;;;;8.93;100.00;98816.19;5011313;28;19928;-74
2024/03/25 02:04:49;;;;;;;;;;;;;;;8.94;100.00;98821.38;5011331;28;19928;-74
2024/03/25 02:07:16;;;;;;;;;;;;;;;9.06;100.00;98811.28;5011607;28;19926;-74
2024/03/25 02:09:41;;;;;;;;;;;;;;;9.13;100.00;98816.53;5011545;28;19922;-75
2024/03/25 02:12:09;;;;;;;;;;;;;;;9.24;100.00;98817.56;5012222;28;19917;-74
2024/03/25 02:14:34;;;;;;;;;;;;;;;9.15;100.00;98825.16;5011087;28;20429;-74
2024/03/25 02:17:00;;;;;;;;;;;;;;;9.07;100.00;98825.00;5011398;28;19921;-74
2024/03/25 02:19:25;;;;;;;;;;;;;;;8.99;100.00;98808.59;5011309;28;20032;-74
2024/03/25 02:21:51;;;;;;;;;;;;;;;9.01;100.00;98781.13;5011349;28;19997;-74
2024/03/25 02:24:19;;;;;;;;;;;;;;;8.99;100.00;98769.97;5011247;28;19921;-76
2024/03/25 02:26:45;;;;;;;;;;;;;;;8.88;100.00;98770.69;5011094;28;19960;-74
2024/03/25 02:29:10;;;;;;;;;;;;;;;8.86;100.00;98776.63;5010791;28;19961;-76
2024/03/25 02:31:35;;;;;;;;;;;;;;;8.82;100.00;98767.13;5011151;28;19972;-76
2024/03/25 02:34:01;;;;;;;;;;;;;;;8.76;100.00;98762.75;5011409;28;20384;-76
2024/03/25 02:36:26;;;;;;;;;;;;;;;8.74;100.00;98796.16;4998183;28;20524;-76
2024/03/25 02:38:51;;;;;;;;;;;;;;;8.75;100.00;98807.34;5011254;28;19921;-76
2024/03/25 02:41:17;;;;;;;;;;;;;;;8.81;100.00;98811.69;4992218;28;20400;-76
2024/03/25 02:43:42;;;;;;;;;;;;;;;8.89;100.00;98815.28;5011194;28;19921;-75
2024/03/25 02:46:08;;;;;;;;;;;;;;;8.91;100.00;98829.06;4992066;28;19987;-76
2024/03/25 02:48:33;;;;;;;;;;;;;;;8.87;100.00;98829.81;5010705;28;20374;-75
2024/03/25 02:50:59;;;;;;;;;;;;;;;8.84;100.00;98816.91;5011001;28;20004;-75
2024/03/25 02:53:24;;;;;;;;;;;;;;;8.82;100.00;98821.16;5010943;28;19918;-75
2024/03/25 02:55:49;;;;;;;;;;;;;;;8.81;100.00;98819.41;5011095;28;19937;-75
2024/03/25 02:58:14;;;;;;;;;;;;;;;8.80;100.00;98812.53;5010431;28;19921;-75
2024/03/25 03:00:40;;;;;;;;;;;;;;;8.70;100.00;98807.25;5011293;28;19921;-75
2024/03/25 03:03:05;;;;;;;;;;;;;;;8.68;100.00;98805.47;5010797;28;20004;-75
2024/03/25 03:05:31;;;;;;;;;;;;;;;8.69;100.00;98818.38;5011469;28;19922;-75
2024/03/25 03:07:56;;;;;;;;;;;;;;;8.75;100.00;98804.75;5016874;28;19913;-75
2024/03/25 03:10:21;;;;;;;;;;;;;;;8.73;100.00;98797.03;5017451;28;19927;-75
2024/03/25 03:12:46;;;;;;;;;;;;;;;8.74;100.00;98809.03;5016800;28;20298;-76
2024/03/25 03:15:12;;;;;;;;;;;;;;;8.61;100.00;98829.34;5017412;28;19972;-75
2024/03/25 03:17:37;;;;;;;;;;;;;;;8.52;100.00;98825.81;5017268;28;19925;-75
2024/03/25 03:20:03;;;;;;;;;;;;;;;8.57;100.00;98826.75;5017590;28;20375;-76
2024/03/25 03:22:29;;;;;;;;;;;;;;;8.62;100.00;98839.66;5017280;28;20264;-75
2024/03/25 03:24:54;;;;;;;;;;;;;;;8.60;100.00;98849.09;5017267;28;19944;-75
2024/03/25 03:27:20;;;;;;;;;;;;;;;8.44;100.00;98865.91;5016959;28;20395;-72
2024/03/25 03:29:45;;;;;;;;;;;;;;;8.31;100.00;98872.50;5016911;28;20403;-74
2024/03/25 03:32:11;;;;;;;;;;;;;;;8.28;100.00;98879.28;5017309;28;19972;-74
2024/03/25 03:34:37;;;;;;;;;;;;;;;8.15;100.00;98907.31;5017195;28;19941;-74
2024/03/25 03:37:02;;;;;;;;;;;;;;;8.15;100.00;98943.28;5017002;28;19922;-74
2024/03/25 03:39:27;;;;;;;;;;;;;;;7.94;100.00;98956.53;5017199;28;20360;-74
2024/03/25 03:41:53;;;;;;;;;;;;;;;7.89;100.00;98946.13;5013807;28;20419;-74
2024/03/25 03:44:18;;;;;;;;;;;;;;;7.91;100.00;98953.88;5014065;28;19917;-75
2024/03/25 03:46:43;;;;;;;;;;;;;;;8.10;100.00;98952.63;5014812;28;19972;-75
2024/03/25 03:49:09;;;;;;;;;;;;;;;8.18;100.00;98958.78;5014555;28;20395;-75
2024/03/25 03:51:34;;;;;;;;;;;;;;;8.21;100.00;98958.84;5014238;28;19928;-75
2024/03/25 03:53:59;;;;;;;;;;;;;;;8.36;100.00;98948.03;5014046;28;19918;-76
2024/03/25 03:56:24;;;;;;;;;;;;;;;8.51;100.00;98954.34;5014012;28;19983;-76
2024/03/25 03:58:50;;;;;;;;;;;;;;;8.53;100.00;98956.13;5014009;28;19983;-76
2024/03/25 04:01:16;;;;;;;;;;;;;;;8.59;100.00;98957.97;5014075;28;19922;-77
2024/03/25 04:03:41;;;;;;;;;;;;;;;8.65;100.00;98959.78;4981537;28;19929;-76
2024/03/25 04:06:07;;;;;;;;;;;;;;;8.63;100.00;98990.63;5014193;28;20389;-76
2024/03/25 04:08:33;;;;;;;;;;;;;;;8.26;100.00;99003.53;5014540;28;19925;-75
2024/03/25 04:11:01;;;;;;;;;;;;;;;7.96;100.00;99003.66;5014070;28;19918;-76
2024/03/25 04:13:26;;;;;;;;;;;;;;;7.96;100.00;99001.09;5015724;28;19991;-76
2024/03/25 04:15:52;;;;;;;;;;;;;;;8.02;100.00;98987.53;5016889;28;20379;-75
2024/03/25 04:18:19;;;;;;;;;;;;;;;7.86;100.00;98987.19;5013639;28;19933;-76
2024/03/25 04:20:44;;;;;;;;;;;;;;;7.86;100.00;98992.34;5013566;28;20486;-75
2024/03/25 04:23:09;;;;;;;;;;;;;;;7.85;100.00;99003.44;5001311;28;19925;-76
2024/03/25 04:25:37;;;;;;;;;;;;;;;7.71;100.00;99018.53;5013613;28;20380;-76
2024/03/25 04:28:03;;;;;;;;;;;;;;;7.66;100.00;99030.34;5013189;28;20012;-75
2024/03/25 04:30:28;;;;;;;;;;;;;;;7.51;100.00;99048.81;4978700;28;20008;-76
2024/03/25 04:32:53;;;;;;;;;;;;;;;7.49;100.00;99052.16;5011912;28;19917;-77
2024/03/25 04:35:19;;;;;;;;;;;;;;;7.63;100.00;99034.53;5013084;28;20403;-78
2024/03/25 04:37:45;;;;;;;;;;;;;;;7.81;100.00;99034.16;5014756;28;19928;-77
2024/03/25 04:40:14;;;;;;;;;;;;;;;7.90;100.00;99035.25;5013949;28;19987;-77
2024/03/25 04:42:41;;;;;;;;;;;;;;;7.99;100.00;99023.44;5013410;28;20418;-77
2024/03/25 04:45:06;;;;;;;;;;;;;;;7.91;100.00;99037.00;4995947;28;20016;-76
2024/03/25 04:47:33;;;;;;;;;;;;;;;7.98;100.00;99050.84;5014403;28;20004;-76
2024/03/25 04:49:58;;;;;;;;;;;;;;;8.03;100.00;99056.09;5014319;28;19918;-76
2024/03/25 04:52:25;;;;;;;;;;;;;;;8.13;100.00;99054.63;5013757;28;20031;-77
2024/03/25 04:54:51;;;;;;;;;;;;;;;8.27;100.00;99058.38;5014793;28;19976;-76
2024/03/25 04:57:16;;;;;;;;;;;;;;;8.30;100.00;99062.72;5013435;28;19964;-76
2024/03/25 04:59:41;;;;;;;;;;;;;;;8.22;100.00;99071.16;5014085;28;19918;-77
2024/03/25 05:02:07;;;;;;;;;;;;;;;8.21;100.00;99079.69;5013862;28;19944;-77
2024/03/25 05:04:32;;;;;;;;;;;;;;;8.22;100.00;99077.97;5013056;28;19925;-77
2024/03/25 05:06:57;;;;;;;;;;;;;;;8.05;100.00;99088.72;5014172;28;20311;-77
2024/03/25 05:09:23;;;;;;;;;;;;;;;7.69;100.00;99122.91;5013194;28;19924;-76
2024/03/25 05:11:48;;;;;;;;;;;;;;;7.40;100.00;99129.81;5013566;28;19921;-77
2024/03/25 05:14:13;;;;;;;;;;;;;;;7.29;100.00;99138.09;5013790;28;19928;-79
2024/03/25 05:16:39;;;;;;;;;;;;;;;7.35;100.00;99141.66;5012593;28;19944;-80
2024/03/25 05:19:04;;;;;;;;;;;;;;;7.27;100.00;99157.69;5012091;28;20330;-80
2024/03/25 05:21:30;;;;;;;;;;;;;;;7.23;100.00;99157.59;5012425;28;19988;-79
2024/03/25 05:23:55;;;;;;;;;;;;;;;7.08;100.00;99153.75;5011059;28;19922;-79
2024/03/25 05:26:21;;;;;;;;;;;;;;;7.03;100.00;99156.97;5009978;28;20740;-78
2024/03/25 05:28:46;;;;;;;;;;;;;;;7.15;100.00;99152.22;5010657;28;19922;-79
2024/03/25 05:31:11;;;;;;;;;;;;;;;7.24;100.00;99151.59;5009818;28;20469;-79
2024/03/25 05:33:37;;;;;;;;;;;;;;;7.19;100.00;99150.59;5009815;28;20277;-78
2024/03/25 05:36:03;;;;;;;;;;;;;;;7.32;100.00;99151.84;4998726;28;19926;-80
2024/03/25 05:38:28;;;;;;;;;;;;;;;7.35;100.00;99151.91;5001116;28;19925;-79
2024/03/25 05:40:54;;;;;;;;;;;;;;;7.27;100.00;99139.72;5000083;28;19925;-79
2024/03/25 05:43:20;;;;;;;;;;;;;;;7.41;100.00;99141.81;5000038;28;20000;-80
2024/03/25 05:45:52;;;;;;;;;;;;;;;7.41;100.00;99136.69;4997897;28;19922;-79
2024/03/25 05:48:17;;;;;;;;;;;;;;;7.50;100.00;99116.44;4997875;28;20389;-79
2024/03/25 05:50:42;;;;;;;;;;;;;;;7.66;100.00;99107.41;4998521;28;19926;-80
2024/03/25 05:53:08;;;;;;;;;;;;;;;7.81;100.00;99117.22;4999009;28;19921;-78
2024/03/25 05:55:33;;;;;;;;;;;;;;;7.85;100.00;99124.19;4998863;28;20065;-78
2024/03/25 05:57:59;;;;;;;;;;;;;;;7.84;100.00;99140.44;4993908;28;20344;-78
2024/03/25 06:00:24;;;;;;;;;;;;;;;7.86;100.00;99138.78;4993867;28;20292;-78
2024/03/25 06:02:50;;;;;;;;;;;;;;;7.85;100.00;99144.75;4991687;28;20307;-79
2024/03/25 06:05:15;;;;;;;;;;;;;;;7.87;100.00;99143.06;4992374;28;19944;-79
2024/03/25 06:07:40;;;;;;;;;;;;;;;8.01;100.00;99138.31;4990635;28;20285;-78
2024/03/25 06:10:06;;;;;;;;;;;;;;;8.09;100.00;99135.94;4992161;28;19933;-78
2024/03/25 06:12:31;;;;;;;;;;;;;;;8.16;100.00;99140.41;4991990;28;19917;-78
2024/03/25 06:14:56;;;;;;;;;;;;;;;7.98;100.00;99134.78;4991594;28;19918;-79
2024/03/25 06:17:22;;;;;;;;;;;;;;;7.91;100.00;99134.63;4991718;28;20012;-78
2024/03/25 06:19:47;;;;;;;;;;;;;;;7.85;100.00;99139.63;4992318;28;20076;-79
2024/03/25 06:22:13;;;;;;;;;;;;;;;7.82;100.00;99156.66;4992514;28;19996;-78
2024/03/25 06:24:38;;;;;;;;;;;;;;;7.90;100.00;99160.28;4991588;28;20396;-79
2024/03/25 06:27:04;;;;;;;;;;;;;;;7.80;100.00;99169.47;4992662;28;20403;-78
2024/03/25 06:29:29;;;;;;;;;;;;;;;7.73;100.00;99178.69;4992255;28;19918;-78
2024/03/25 06:34:39;;;;;;;;;;;;;;;7.47;100.00;99190.78;4992142;28;20421;-79
2024/03/25 06:37:04;;;;;;;;;;;;;;;7.36;100.00;99190.47;5020508;28;19921;-79
2024/03/25 06:39:30;;;;;;;;;;;;;;;7.35;100.00;99185.31;5020633;28;20390;-78
2024/03/25 06:41:55;;;;;;;;;;;;;;;7.47;100.00;99185.66;5020062;28;20283;-79
2024/03/25 06:44:20;;;;;;;;;;;;;;;7.48;100.00;99179.69;5022217;28;19925;-79
2024/03/25 06:46:46;;;;;;;;;;;;;;;7.55;100.00;99185.88;5011112;28;19928;-79
2024/03/25 06:49:11;;;;;;;;;;;;;;;7.68;100.00;99187.97;5021523;28;19927;-79
2024/03/25 06:51:36;;;;;;;;;;;;;;;7.69;100.00;99193.94;5022509;28;19993;-79
2024/03/25 06:54:03;;;;;;;;;;;;;;;7.43;100.00;99207.81;5014102;28;19925;-80
2024/03/25 06:56:28;;;;;;;;;;;;;;;7.21;100.00;99213.13;5022774;28;19968;-80
2024/03/25 06:58:53;;;;;;;;;;;;;;;7.18;100.00;99207.91;5005410;28;19972;-80
2024/03/25 07:01:19;;;;;;;;;;;;;;;7.26;100.00;99209.91;5021626;28;19921;-79
2024/03/25 07:03:44;;;;;;;;;;;;;;;7.30;100.00;99210.81;5022001;28;20299;-79
2024/03/25 07:06:09;;;;;;;;;;;;;;;7.43;100.00;99204.38;5021186;28;20351;-79
2024/03/25 07:08:35;;;;;;;;;;;;;;;7.45;100.00;99195.88;5020527;28;19929;-80
2024/03/25 07:11:00;;;;;;;;;;;;;;;7.55;100.00;99185.88;5000192;28;19922;-78
2024/03/25 07:13:26;;;;;;;;;;;;;;;7.79;100.00;99185.69;5021456;28;20308;-78
2024/03/25 07:15:51;;;;;;;;;;;;;;;8.02;100.00;99198.28;5022755;28;19922;-77
2024/03/25 07:18:16;;;;;;;;;;;;;;;8.21;100.00;99200.53;5020344;28;19925;-78
2024/03/25 07:20:42;;;;;;;;;;;;;;;8.30;100.00;99210.16;5004292;28;19917;-78
2024/03/25 07:23:08;;;;;;;;;;;;;;;8.11;100.00;99219.09;5022247;28;19928;-78
2024/03/25 07:25:33;;;;;;;;;;;;;;;8.17;100.00;99203.81;5022079;28;19925;-78
2024/03/25 07:27:59;;;;;;;;;;;;;;;8.31;100.00;99199.06;5020460;28;19928;-78
2024/03/25 07:30:28;;;;;;;;;;;;;;;8.34;100.00;99216.25;5020399;28;19921;-78
2024/03/25 07:32:56;;;;;;;;;;;;;;;8.33;100.00;99228.22;5020178;28;19917;-77
2024/03/25 07:35:22;;;;;;;;;;;;;;;8.26;100.00;99228.91;5018555;28;19929;-78
2024/03/25 07:37:51;;;;;;;;;;;;;;;8.22;100.00;99230.53;5010260;28;19922;-77
2024/03/25 07:40:16;;;;;;;;;;;;;;;8.26;100.00;99229.78;5010599;28;20450;-78
2024/03/25 07:42:41;;;;;;;;;;;;;;;8.32;100.00;99229.06;5010547;28;19921;-77
2024/03/25 07:45:09;;;;;;;;;;;;;;;8.53;100.00;99221.06;4990973;28;21314;-78
2024/03/25 07:47:34;;;;;;;;;;;;;;;8.69;100.00;99224.03;5010152;28;20036;-78
2024/03/25 07:50:00;;;;;;;;;;;;;;;8.84;100.00;99224.38;5009435;28;20453;-77
2024/03/25 07:52:26;;;;;;;;;;;;;;;8.95;100.00;99228.91;5010890;28;19972;-78
2024/03/25 07:54:51;;;;;;;;;;;;;;;8.93;100.00;99235.72;5014188;28;20008;-78
2024/03/25 07:57:17;;;;;;;;;;;;;;;9.07;100.00;99239.47;5014115;28;19984;-77
2024/03/25 07:59:43;;;;;;;;;;;;;;;9.15;100.00;99244.84;5013887;28;20395;-77
2024/03/25 08:02:08;;;;;;;;;;;;;;;9.23;100.00;99239.03;5013608;28;20599;-78
2024/03/25 08:04:33;;;;;;;;;;;;;;;9.13;100.00;99247.34;5014222;28;19929;-77
2024/03/25 08:06:59;;;;;;;;;;;;;;;9.01;100.00;99245.38;5014033;28;19924;-78
2024/03/25 08:09:24;;;;;;;;;;;;;;;9.32;100.00;99256.38;5014029;28;19917;-77
2024/03/25 08:11:54;;;;;;;;;;;;;;;9.31;100.00;99259.78;5013674;28;20101;-78
2024/03/25 08:14:20;;;;;;;;;;;;;;;9.28;100.00;99266.56;5006652;28;19927;-77
2024/03/25 08:16:45;;;;;;;;;;;;;;;9.18;100.00;99262.91;5014124;28;19937;-76
2024/03/25 08:19:10;;;;;;;;;;;;;;;9.14;100.00;99261.97;5012206;28;20016;-77
2024/03/25 08:21:36;;;;;;;;;;;;;;;9.09;100.00;99258.41;5013557;28;20033;-78
2024/03/25 08:24:01;;;;;;;;;;;;;;;9.09;100.00;99260.13;5013349;28;19957;-76
2024/03/25 08:26:26;;;;;;;;;;;;;;;9.14;100.00;99258.53;5013501;28;19968;-76
2024/03/25 08:28:52;;;;;;;;;;;;;;;9.36;100.00;99255.59;5013275;28;19925;-77
2024/03/25 08:31:17;;;;;;;;;;;;;;;9.55;100.00;99249.13;5013751;28;19925;-76
2024/03/25 08:33:42;;;;;;;;;;;;;;;9.59;100.00;99262.97;5013458;28;19926;-76
2024/03/25 08:36:08;;;;;;;;;;;;;;;9.63;100.00;99263.91;5013371;28;19925;-77
2024/03/25 08:38:33;;;;;;;;;;;;;;;9.66;100.00;99264.84;5013501;28;19936;-77
2024/03/25 08:40:59;;;;;;;;;;;;;;;9.70;100.00;99260.63;5013470;28;20004;-77
2024/03/25 08:43:24;;;;;;;;;;;;;;;9.87;100.00;99263.56;5013571;28;19972;-76
2024/03/25 08:45:49;;;;;;;;;;;;;;;9.80;100.00;99266.84;5012833;28;19921;-77
2024/03/25 08:48:15;;;;;;;;;;;;;;;9.77;100.00;99267.66;4994189;28;19922;-76
2024/03/25 08:50:40;;;;;;;;;;;;;;;9.78;100.00;99274.53;5013333;28;20455;-76
2024/03/25 08:53:05;;;;;;;;;;;;;;;9.85;100.00;99278.09;5012985;28;20387;-77
2024/03/25 08:55:31;;;;;;;;;;;;;;;9.93;100.00;99273.09;5013430;28;19964;-76
2024/03/25 08:57:59;;;;;;;;;;;;;;;9.99;100.00;99266.38;5013290;28;19933;-76
2024/03/25 09:00:25;;;;;;;;;;;;;;;10.13;100.00;99271.81;5012742;28;20410;-77
2024/03/25 09:02:50;;;;;;;;;;;;;;;10.17;100.00;99271.00;5012878;28;19973;-77
2024/03/25 09:05:18;;;;;;;;;;;;;;;10.17;100.00;99283.91;5011743;28;20012;-76
2024/03/25 09:07:44;;;;;;;;;;;;;;;10.08;100.00;99282.84;5012784;28;19917;-76
2024/03/25 09:12:53;;;;;;;;;;;;;;;10.43;100.00;99278.41;5009356;28;20025;-76
2024/03/25 09:15:19;;;;;;;;;;;;;;;10.43;100.00;99282.69;5012596;28;19952;-78
2024/03/25 09:17:44;;;;;;;;;;;;;;;10.42;100.00;99284.41;5013239;28;19917;-78
2024/03/25 09:20:16;;;;;;;;;;;;;;;10.46;100.00;99293.06;5013067;28;19925;-77
2024/03/25 09:22:45;;;;;;;;;;;;;;;10.26;100.00;99296.09;4992812;28;19921;-77
2024/03/25 09:25:10;;;;;;;;;;;;;;;10.10;100.00;99297.50;5012469;28;20016;-76
2024/03/25 09:27:35;;;;;;;;;;;;;;;10.17;100.00;99308.84;5012336;28;20020;-76
2024/03/25 09:30:01;;;;;;;;;;;;;;;10.15;100.00;99303.63;4993827;28;19925;-76
2024/03/25 09:32:26;;;;;;;;;;;;;;;10.09;100.00;99302.66;5012346;28;19925;-76
2024/03/25 09:34:52;;;;;;;;;;;;;;;10.13;100.00;99309.59;5012527;28;19921;-77
2024/03/25 09:37:17;;;;;;;;;;;;;;;10.19;100.00;99297.72;5011985;28;19976;-77
2024/03/25 09:39:44;;;;;;;;;;;;;;;10.03;100.00;99305.97;5012466;28;19925;-76
2024/03/25 09:42:14;;;;;;;;;;;;;;;10.10;100.00;99312.97;5012870;28;19922;-77
2024/03/25 09:44:39;;;;;;;;;;;;;;;10.11;100.00;99317.31;5012239;28;19921;-75
2024/03/25 09:47:04;;;;;;;;;;;;;;;10.08;100.00;99318.94;5012437;28;19918;-76
2024/03/25 09:49:31;;;;;;;;;;;;;;;10.18;100.00;99314.03;5012150;28;20071;-76
2024/03/25 09:51:57;;;;;;;;;;;;;;;10.17;100.00;99311.41;5012054;28;19997;-76
2024/03/25 09:54:22;;;;;;;;;;;;;;;10.24;100.00;99305.50;5012338;28;20008;-77
2024/03/25 09:56:49;;;;;;;;;;;;;;;10.33;100.00;99297.97;5011785;28;19999;-77
2024/03/25 09:59:14;;;;;;;;;;;;;;;10.41;100.00;99310.19;5011680;28;20454;-77
2024/03/25 10:01:40;;;;;;;;;;;;;;;10.55;100.00;99310.44;5011791;28;19925;-77
2024/03/25 10:04:05;;;;;;;;;;;;;;;10.65;100.00;99312.34;5011759;28;20399;-76
2024/03/25 10:06:32;;;;;;;;;;;;;;;10.65;100.00;99312.34;5012318;28;19918;-77
2024/03/25 10:08:57;;;;;;;;;;;;;;;10.67;100.00;99301.19;5011525;28;19925;-77
2024/03/25 10:11:23;;;;;;;;;;;;;;;10.76;100.00;99312.53;5011626;28;19989;-76
2024/03/25 10:13:48;;;;;;;;;;;;;;;10.82;100.00;99310.91;5011557;28;19925;-77
2024/03/25 10:16:13;;;;;;;;;;;;;;;10.83;100.00;99302.31;5010161;28;19925;-77
2024/03/25 10:18:39;;;;;;;;;;;;;;;10.88;100.00;99314.44;5010878;28;19925;-76
2024/03/25 10:21:04;;;;;;;;;;;;;;;10.91;100.00;99309.34;5011631;28;19921;-77
2024/03/25 10:23:29;;;;;;;;;;;;;;;10.96;100.00;99307.69;5011869;28;19976;-77
2024/03/25 10:25:55;;;;;;;;;;;;;;;11.04;100.00;99313.00;5011496;28;19922;-76
2024/03/25 10:28:20;;;;;;;;;;;;;;;10.99;100.00;99310.31;5011276;28;19925;-77
2024/03/25 10:30:46;;;;;;;;;;;;;;;11.04;100.00;99321.63;5012006;28;20299;-77
2024/03/25 10:33:11;;;;;;;;;;;;;;;11.17;100.00;99322.69;5011254;28;20530;-77
2024/03/25 10:35:37;;;;;;;;;;;;;;;11.24;100.00;99328.81;5011948;28;19922;-76
2024/03/25 10:38:04;;;;;;;;;;;;;;;11.14;100.00;99332.94;5019613;28;19921;-77
2024/03/25 10:40:32;;;;;;;;;;;;;;;11.10;100.00;99336.34;4979455;28;19976;-76
2024/03/25 10:43:00;;;;;;;;;;;;;;;10.92;100.00;99342.06;4961158;28;20297;-76
2024/03/25 10:45:28;;;;;;;;;;;;;;;10.90;100.00;99349.78;4978682;28;19926;-76
2024/03/25 10:47:55;;;;;;;;;;;;;;;10.74;100.00;99358.09;4979332;28;20315;-75
2024/03/25 10:50:23;;;;;;;;;;;;;;;10.77;100.00;99342.66;4979976;28;20387;-77
2024/03/25 10:52:50;;;;;;;;;;;;;;;11.08;100.00;99350.94;4980526;28;19918;-76
2024/03/25 10:55:17;;;;;;;;;;;;;;;11.02;100.00;99345.69;4980574;28;20098;-76
2024/03/25 10:57:43;;;;;;;;;;;;;;;11.11;100.00;99336.34;4947642;28;19926;-77
2024/03/25 11:00:08;;;;;;;;;;;;;;;11.00;100.00;99338.78;4982698;28;20376;-75
2024/03/25 11:02:34;;;;;;;;;;;;;;;10.91;100.00;99350.66;4978387;28;20028;-76
2024/03/25 11:05:01;;;;;;;;;;;;;;;11.00;100.00;99345.63;4978518;28;19929;-77
2024/03/25 11:07:30;;;;;;;;;;;;;;;11.15;100.00;99335.59;4978204;28;19922;-77
2024/03/25 11:10:03;;;;;;;;;;;;;;;11.11;100.00;99354.44;4945042;28;19926;-77
2024/03/25 11:12:32;;;;;;;;;;;;;;;10.77;100.00;99356.44;5017837;28;19965;-76
2024/03/25 11:14:57;;;;;;;;;;;;;;;10.61;100.00;99352.69;5022098;28;19921;-78
2024/03/25 11:17:22;;;;;;;;;;;;;;;10.40;100.00;99358.31;5011573;28;20303;-77
2024/03/25 11:19:48;;;;;;;;;;;;;;;10.42;100.00;99354.06;5022432;28;20303;-77
2024/03/25 11:22:14;;;;;;;;;;;;;;;10.52;100.00;99355.97;5022001;28;19939;-77
2024/03/25 11:24:44;;;;;;;;;;;;;;;10.65;100.00;99349.34;5009596;28;19957;-77
2024/03/25 11:27:09;;;;;;;;;;;;;;;10.68;100.00;99354.56;5024073;28;20004;-77
2024/03/25 11:29:34;;;;;;;;;;;;;;;10.61;100.00;99365.59;5024282;28;20017;-77
2024/03/25 11:32:03;;;;;;;;;;;;;;;10.51;100.00;99361.13;5024637;28;19918;-76
2024/03/25 11:34:29;;;;;;;;;;;;;;;10.60;100.00;99363.00;5023954;28;20415;-78
2024/03/25 11:36:56;;;;;;;;;;;;;;;10.64;100.00;99352.78;5025451;28;19965;-77
2024/03/25 11:39:21;;;;;;;;;;;;;;;10.65;100.00;99369.13;5026054;28;20011;-77
2024/03/25 11:41:47;;;;;;;;;;;;;;;10.67;100.00;99372.59;5024594;28;20427;-77
2024/03/25 11:44:12;;;;;;;;;;;;;;;10.62;100.00;99379.41;5024759;28;19917;-77
2024/03/25 11:46:38;;;;;;;;;;;;;;;10.66;100.00;99379.47;5025331;28;20387;-77
2024/03/25 11:49:08;;;;;;;;;;;;;;;10.75;100.00;99375.31;5022264;28;19917;-77
2024/03/25 11:51:34;;;;;;;;;;;;;;;10.84;100.00;99367.72;5023272;28;20538;-77
2024/03/25 11:53:59;;;;;;;;;;;;;;;10.81;100.00;99381.47;5021577;28;19983;-77
2024/03/25 11:56:26;;;;;;;;;;;;;;;10.90;100.00;99385.06;5025790;28;19921;-77
2024/03/25 11:58:51;;;;;;;;;;;;;;;10.90;100.00;99388.50;5007858;28;19926;-77
2024/03/25 12:01:17;;;;;;;;;;;;;;;11.00;100.00;99392.13;5023948;28;19929;-77
2024/03/25 12:03:43;;;;;;;;;;;;;;;11.08;100.00;99387.97;4989511;28;20579;-77
2024/03/25 12:06:08;;;;;;;;;;;;;;;11.16;100.00;99381.25;5025486;28;19917;-77
2024/03/25 12:08:36;;;;;;;;;;;;;;;11.25;99.25;99375.34;5020745;28;19928;-77
2024/03/25 12:11:17;;;;;;;;;;;;;;;11.33;98.00;99378.06;5019515;28;20302;-76
2024/03/25 12:13:43;;;;;;;;;;;;;;;11.28;98.89;99374.53;5022946;28;20391;-77
2024/03/25 12:16:09;;;;;;;;;;;;;;;11.19;96.81;99383.00;5024301;28;20319;-77
2024/03/25 12:18:35;;;;;;;;;;;;;;;11.16;97.04;99380.34;5025085;28;19917;-77
2024/03/25 12:21:01;;;;;;;;;;;;;;;11.20;99.56;99374.38;5025087;28;19922;-77
2024/03/25 12:23:30;;;;;;;;;;;;;;;11.29;98.33;99376.25;5017254;28;19937;-77
2024/03/25 12:25:56;;;;;;;;;;;;;;;11.33;97.01;99376.31;5021302;28;19925;-77
2024/03/25 12:28:22;;;;;;;;;;;;;;;11.41;94.86;99373.88;5022145;28;20000;-77
2024/03/25 12:30:57;;;;;;;;;;;;;;;11.38;91.25;99385.88;5026560;28;19921;-77
2024/03/25 12:33:25;;;;;;;;;;;;;;;11.52;92.18;99384.38;5025229;28;19932;-77
2024/03/25 12:35:52;;;;;;;;;;;;;;;11.56;92.56;99374.97;5023486;28;20425;-77
2024/03/25 12:38:23;;;;;;;;;;;;;;;11.57;91.02;99389.63;5019745;28;19927;-77
2024/03/25 12:40:50;;;;;;;;;;;;;;;11.54;93.78;99399.91;5021886;28;20391;-77